createdAt,value
2023-02-11T00:00:21.035Z,23.35
2023-02-11T00:02:48.105Z,23.35
2023-02-11T00:05:14.949Z,16.48
2023-02-11T00:07:41.677Z,19.88
2023-02-11T00:10:09.202Z,22.70
2023-02-11T00:12:36.874Z,16.55
2023-02-11T00:15:04.604Z,20.25
2023-02-11T00:17:32.255Z,18.35
2023-02-11T00:19:58.830Z,20.75
2023-02-11T00:22:25.290Z,18.55
2023-02-11T00:24:51.692Z,21.48
2023-02-11T00:27:18.108Z,20.73
2023-02-11T00:29:44.501Z,19.63
2023-02-11T00:32:11.109Z,17.00
2023-02-11T00:34:38.113Z,16.55
2023-02-11T00:37:05.056Z,17.90
2023-02-11T00:39:31.447Z,23.85
2023-02-11T00:41:58.534Z,18.10
2023-02-11T00:44:25.313Z,18.15
2023-02-11T00:46:51.830Z,15.65
2023-02-11T00:49:18.654Z,15.60
2023-02-11T00:51:45.101Z,17.63
2023-02-11T00:54:11.587Z,16.50
2023-02-11T00:56:38.026Z,16.65
2023-02-11T00:59:04.560Z,18.90
2023-02-11T01:01:31.066Z,20.48
2023-02-11T01:03:57.555Z,20.48
2023-02-11T01:06:23.934Z,16.70
2023-02-11T01:08:50.574Z,22.88
2023-02-11T01:11:19.767Z,17.13
2023-02-11T01:13:46.959Z,17.90
2023-02-11T01:16:13.974Z,19.50
2023-02-11T01:18:41.287Z,16.92
2023-02-11T01:21:07.817Z,20.80
2023-02-11T01:23:34.277Z,14.50
2023-02-11T01:26:00.754Z,19.52
2023-02-11T01:28:29.032Z,20.35
2023-02-11T01:30:56.319Z,17.95
2023-02-11T01:33:23.933Z,14.27
2023-02-11T01:35:50.992Z,16.15
2023-02-11T01:38:23.312Z,21.05
2023-02-11T01:41:02.988Z,18.20
2023-02-11T01:43:33.419Z,20.38
2023-02-11T01:46:17.315Z,15.57
2023-02-11T01:48:47.480Z,14.48
2023-02-11T01:51:19.279Z,18.92
2023-02-11T01:53:47.577Z,18.27
2023-02-11T01:56:15.409Z,12.80
2023-02-11T01:58:45.171Z,17.23
2023-02-11T02:01:18.135Z,19.98
2023-02-11T02:03:48.676Z,13.70
2023-02-11T02:06:26.345Z,19.58
2023-02-11T02:09:00.873Z,15.80
2023-02-11T02:11:27.483Z,14.13
2023-02-11T02:13:53.977Z,16.85
2023-02-11T02:16:22.503Z,21.92
2023-02-11T02:19:26.852Z,17.23
2023-02-11T02:22:26.984Z,16.10
2023-02-11T02:25:19.067Z,25.95
2023-02-11T02:28:20.563Z,19.65
2023-02-11T02:31:07.988Z,17.85
2023-02-11T02:33:53.124Z,18.52
2023-02-11T02:36:37.959Z,20.42
2023-02-11T02:39:14.512Z,19.73
2023-02-11T02:41:42.151Z,23.38
2023-02-11T02:44:08.889Z,19.27
2023-02-11T02:46:36.398Z,19.65
2023-02-11T02:49:03.347Z,17.52
2023-02-11T02:51:47.653Z,16.85
2023-02-11T02:57:14.744Z,20.27
2023-02-11T02:59:57.648Z,20.52
2023-02-11T03:02:33.426Z,20.55
2023-02-11T03:05:11.672Z,20.58
2023-02-11T03:07:45.045Z,20.73
2023-02-11T03:10:21.399Z,21.08
2023-02-11T03:12:48.625Z,17.20
2023-02-11T03:15:18.204Z,19.48
2023-02-11T03:17:47.560Z,20.98
2023-02-11T03:20:18.996Z,21.02
2023-02-11T03:22:57.869Z,25.90
2023-02-11T03:25:32.871Z,22.05
2023-02-11T03:28:14.531Z,15.07
2023-02-11T03:30:57.206Z,19.98
2023-02-11T03:33:33.179Z,21.98
2023-02-11T03:36:07.769Z,15.93
2023-02-11T03:38:38.038Z,16.98
2023-02-11T03:41:07.820Z,21.23
2023-02-11T03:43:41.879Z,17.90
2023-02-11T03:46:10.917Z,19.35
2023-02-11T03:48:42.016Z,21.77
2023-02-11T03:51:12.349Z,22.50
2023-02-11T03:53:42.231Z,20.88
2023-02-11T03:56:12.990Z,23.83
2023-02-11T03:58:39.387Z,25.13
2023-02-11T04:01:07.270Z,19.65
2023-02-11T04:03:33.655Z,24.95
2023-02-11T04:06:00.013Z,23.77
2023-02-11T04:08:26.348Z,21.90
2023-02-11T04:13:18.974Z,18.33
2023-02-11T04:15:47.267Z,21.83
2023-02-11T04:18:15.084Z,22.63
2023-02-11T04:20:41.452Z,18.70
2023-02-11T04:23:07.934Z,22.05
2023-02-11T04:25:34.418Z,23.90
2023-02-11T04:28:00.892Z,22.35
2023-02-11T04:30:27.475Z,24.60
2023-02-11T04:32:54.103Z,25.00
2023-02-11T04:35:21.037Z,27.77
2023-02-11T04:37:47.455Z,21.25
2023-02-11T04:40:13.786Z,24.20
2023-02-11T04:42:40.655Z,24.13
2023-02-11T04:45:07.404Z,25.40
2023-02-11T04:47:34.391Z,32.00
2023-02-11T04:50:00.701Z,25.85
2023-02-11T04:52:27.166Z,24.45
2023-02-11T04:54:53.557Z,23.38
2023-02-11T04:57:19.925Z,26.67
2023-02-11T04:59:46.383Z,26.60
2023-02-11T05:02:12.823Z,25.50
2023-02-11T05:04:39.341Z,26.65
2023-02-11T05:07:05.825Z,25.27
2023-02-11T05:09:32.355Z,28.45
2023-02-11T05:11:58.756Z,26.45
2023-02-11T05:14:25.139Z,28.90
2023-02-11T05:16:51.571Z,30.05
2023-02-11T05:19:18.083Z,26.90
2023-02-11T05:22:00.299Z,29.88
2023-02-11T05:24:28.491Z,23.75
2023-02-11T05:26:54.891Z,30.65
2023-02-11T05:29:21.285Z,30.65
2023-02-11T05:31:47.831Z,28.55
2023-02-11T05:34:14.368Z,34.50
2023-02-11T05:36:41.014Z,28.45
2023-02-11T05:39:07.397Z,31.80
2023-02-11T05:41:33.782Z,31.88
2023-02-11T05:44:00.180Z,36.17
2023-02-11T05:46:26.873Z,33.00
2023-02-11T05:48:53.395Z,34.65
2023-02-11T05:51:19.800Z,35.28
2023-02-11T05:53:46.273Z,36.60
2023-02-11T05:56:12.752Z,35.40
2023-02-11T05:58:39.129Z,37.03
2023-02-11T06:01:05.598Z,39.00
2023-02-11T06:03:32.107Z,39.08
2023-02-11T06:05:58.660Z,31.40
2023-02-11T06:08:25.137Z,36.10
2023-02-11T06:10:51.553Z,33.08
2023-02-11T06:13:17.979Z,36.97
2023-02-11T06:15:44.429Z,37.28
2023-02-11T06:18:11.012Z,35.97
2023-02-11T06:20:38.489Z,35.25
2023-02-11T06:23:04.783Z,43.13
2023-02-11T06:27:57.422Z,33.53
2023-02-11T06:30:23.835Z,36.70
2023-02-11T06:32:50.155Z,36.13
2023-02-11T06:35:16.678Z,36.17
2023-02-11T06:37:43.313Z,39.75
2023-02-11T06:40:11.303Z,32.35
2023-02-11T06:42:38.122Z,37.22
2023-02-11T06:45:04.922Z,36.13
2023-02-11T06:47:31.770Z,38.35
2023-02-11T06:49:58.084Z,37.10
2023-02-11T06:52:24.473Z,31.70
2023-02-11T06:54:50.811Z,39.42
2023-02-11T06:57:17.175Z,37.08
2023-02-11T06:59:43.539Z,37.10
2023-02-11T07:02:10.623Z,42.33
2023-02-11T07:04:37.081Z,39.20
2023-02-11T07:07:03.482Z,37.45
2023-02-11T07:09:29.883Z,37.17
2023-02-11T07:11:56.243Z,33.67
2023-02-11T07:14:22.648Z,43.00
2023-02-11T07:16:49.003Z,40.00
2023-02-11T07:19:15.344Z,36.72
2023-02-11T07:21:42.134Z,37.92
2023-02-11T07:24:11.229Z,37.08
2023-02-11T07:26:38.139Z,38.78
2023-02-11T07:29:04.878Z,45.33
2023-02-11T07:31:31.716Z,36.08
2023-02-11T07:34:00.859Z,34.35
2023-02-11T07:36:29.923Z,44.63
2023-02-11T07:38:56.530Z,39.88
2023-02-11T07:41:24.460Z,35.45
2023-02-11T07:43:51.585Z,44.72
2023-02-11T07:46:21.158Z,39.95
2023-02-11T07:48:47.774Z,41.45
2023-02-11T07:51:25.109Z,38.13
2023-02-11T07:53:52.047Z,38.05
2023-02-11T07:56:20.261Z,44.47
2023-02-11T07:58:46.667Z,37.25
2023-02-11T08:01:16.904Z,38.03
2023-02-11T08:03:43.499Z,38.53
2023-02-11T08:06:12.696Z,37.08
2023-02-11T08:08:39.701Z,40.72
2023-02-11T08:11:08.245Z,35.97
2023-02-11T08:13:34.885Z,39.80
2023-02-11T08:16:01.341Z,35.40
2023-02-11T08:18:27.883Z,32.78
2023-02-11T08:20:54.282Z,36.47
2023-02-11T08:23:20.655Z,39.95
2023-02-11T08:25:47.069Z,38.95
2023-02-11T08:28:13.588Z,38.95
2023-02-11T08:30:40.025Z,36.88
2023-02-11T08:33:06.413Z,32.13
2023-02-11T08:35:35.238Z,32.17
2023-02-11T08:38:01.643Z,37.35
2023-02-11T08:40:28.022Z,37.35
2023-02-11T08:42:54.367Z,35.75
2023-02-11T08:45:20.743Z,32.13
2023-02-11T08:47:47.109Z,36.75
2023-02-11T08:50:13.598Z,32.55
2023-02-11T08:52:39.941Z,36.45
2023-02-11T08:55:06.738Z,33.65
2023-02-11T08:57:33.107Z,37.05
2023-02-11T08:59:59.413Z,37.20
2023-02-11T09:02:25.899Z,35.83
2023-02-11T09:04:52.278Z,33.88
2023-02-11T09:07:18.653Z,36.75
2023-02-11T09:09:44.965Z,35.70
2023-02-11T09:12:11.307Z,32.63
2023-02-11T09:14:37.646Z,30.38
2023-02-11T09:17:04.102Z,32.47
2023-02-11T09:19:30.463Z,32.75
2023-02-11T09:21:57.066Z,30.63
2023-02-11T09:24:23.383Z,29.98
2023-02-11T09:26:49.751Z,31.70
2023-02-11T09:29:16.109Z,31.13
2023-02-11T09:31:42.559Z,31.00
2023-02-11T09:34:10.875Z,28.33
2023-02-11T09:36:39.472Z,29.48
2023-02-11T09:39:11.538Z,28.98
2023-02-11T09:41:56.407Z,33.25
2023-02-11T09:44:26.124Z,29.30
2023-02-11T09:46:59.662Z,26.08
2023-02-11T09:50:00.787Z,28.33
2023-02-11T09:52:37.268Z,24.60
2023-02-11T09:55:14.088Z,27.25
2023-02-11T09:57:40.611Z,26.45
2023-02-11T10:00:23.036Z,25.05
2023-02-11T10:03:00.798Z,23.30
2023-02-11T10:06:18.305Z,28.83
2023-02-11T10:09:31.022Z,24.13
2023-02-11T10:12:32.311Z,24.42
2023-02-11T10:15:21.517Z,21.13
2023-02-11T10:18:06.715Z,23.58
2023-02-11T10:20:38.552Z,26.85
2023-02-11T10:23:15.506Z,24.90
2023-02-11T10:25:48.863Z,22.73
2023-02-11T10:28:20.900Z,23.13
2023-02-11T10:31:04.905Z,22.70
2023-02-11T10:33:59.081Z,21.52
2023-02-11T10:36:30.934Z,20.73
2023-02-11T10:39:02.222Z,18.17
2023-02-11T10:41:36.659Z,22.45
2023-02-11T10:44:06.907Z,21.50
2023-02-11T10:46:37.318Z,23.02
2023-02-11T10:49:03.742Z,18.67
2023-02-11T10:51:32.625Z,19.58
2023-02-11T10:54:16.765Z,22.15
2023-02-11T10:59:41.301Z,17.80
2023-02-11T11:02:23.860Z,21.45
2023-02-11T11:04:56.694Z,22.88
2023-02-11T11:07:27.389Z,17.70
2023-02-11T11:10:07.321Z,22.95
2023-02-11T11:12:45.904Z,19.95
2023-02-11T11:15:32.448Z,18.88
2023-02-11T11:18:24.597Z,18.38
2023-02-11T11:20:58.727Z,17.80
2023-02-11T11:23:26.039Z,19.88
2023-02-11T11:26:19.233Z,15.45
2023-02-11T11:29:21.497Z,17.63
2023-02-11T11:34:31.920Z,16.67
2023-02-11T11:37:00.820Z,15.55
2023-02-11T11:39:32.848Z,16.15
2023-02-11T11:42:02.096Z,15.70
2023-02-11T11:45:01.414Z,15.80
2023-02-11T11:47:59.360Z,14.38
2023-02-11T11:50:39.829Z,14.93
2023-02-11T11:53:20.735Z,13.00
2023-02-11T11:55:59.593Z,16.30
2023-02-11T11:58:28.963Z,16.90
2023-02-11T12:01:33.007Z,13.95
2023-02-11T12:04:27.061Z,13.57
2023-02-11T12:07:10.563Z,13.73
2023-02-11T12:09:45.580Z,11.68
2023-02-11T12:12:34.665Z,14.43
2023-02-11T12:15:28.803Z,12.60
2023-02-11T12:18:06.148Z,12.80
2023-02-11T12:20:50.355Z,11.35
2023-02-11T12:23:34.640Z,12.43
2023-02-11T12:29:13.891Z,10.52
2023-02-11T12:32:02.418Z,13.73
2023-02-11T12:34:40.089Z,9.40
2023-02-11T12:37:37.827Z,14.10
2023-02-11T12:40:10.032Z,11.80
2023-02-11T12:43:02.802Z,12.90
2023-02-11T12:45:41.058Z,12.10
2023-02-11T12:48:44.796Z,9.48
2023-02-11T12:51:39.390Z,12.60
2023-02-11T12:54:20.982Z,10.27
2023-02-11T12:56:56.778Z,9.18
2023-02-11T13:00:01.960Z,10.80
2023-02-11T13:02:40.763Z,9.75
2023-02-11T13:05:23.073Z,11.45
2023-02-11T13:07:51.764Z,8.05
2023-02-11T13:10:30.235Z,8.50
2023-02-11T13:12:59.003Z,9.60
2023-02-11T13:15:25.615Z,9.57
2023-02-11T13:18:11.096Z,10.70
2023-02-11T13:20:46.153Z,8.45
2023-02-11T13:23:31.730Z,8.85
2023-02-11T13:26:08.290Z,12.75
2023-02-11T13:29:15.609Z,11.10
2023-02-11T13:31:42.086Z,11.52
2023-02-11T13:34:27.149Z,9.77
2023-02-11T13:36:55.596Z,10.68
2023-02-11T13:39:22.564Z,10.68
2023-02-11T13:41:52.194Z,12.02
2023-02-11T13:44:23.496Z,10.10
2023-02-11T13:47:02.130Z,12.43
2023-02-11T13:49:34.212Z,10.93
2023-02-11T13:54:38.947Z,11.27
2023-02-11T13:57:20.361Z,12.43
2023-02-11T13:59:51.951Z,10.88
2023-02-11T14:02:31.511Z,11.07
2023-02-11T14:05:04.097Z,9.63
2023-02-11T14:07:32.788Z,8.90
2023-02-11T14:09:59.132Z,11.73
2023-02-11T14:12:32.976Z,10.80
2023-02-11T14:15:18.114Z,10.63
2023-02-11T14:17:44.638Z,9.80
2023-02-11T14:20:36.707Z,10.32
2023-02-11T14:23:04.336Z,9.45
2023-02-11T14:25:31.067Z,10.93
2023-02-11T14:28:06.783Z,9.85
2023-02-11T14:30:50.253Z,10.00
2023-02-11T14:33:50.845Z,8.88
2023-02-11T14:36:52.384Z,12.23
2023-02-11T14:39:49.618Z,9.52
2023-02-11T14:42:22.749Z,10.63
2023-02-11T14:44:51.753Z,13.95
2023-02-11T14:47:40.886Z,10.27
2023-02-11T14:50:15.748Z,10.10
2023-02-11T14:52:44.140Z,11.50
2023-02-11T14:55:40.390Z,11.52
2023-02-11T14:58:21.689Z,9.77
2023-02-11T15:01:02.687Z,6.93
2023-02-11T15:03:35.860Z,10.13
2023-02-11T15:06:18.602Z,9.02
2023-02-11T15:08:51.163Z,9.18
2023-02-11T15:11:20.917Z,9.07
2023-02-11T15:13:49.071Z,8.73
2023-02-11T15:16:19.786Z,9.52
2023-02-11T15:19:07.103Z,8.50
2023-02-11T15:21:36.389Z,9.45
2023-02-11T15:24:06.464Z,10.77
2023-02-11T15:26:33.620Z,8.55
2023-02-11T15:29:00.279Z,8.30
2023-02-11T15:31:27.995Z,9.02
2023-02-11T15:33:54.643Z,9.68
2023-02-11T15:36:24.422Z,9.52
2023-02-11T15:39:16.262Z,10.35
2023-02-11T15:41:42.649Z,8.05
2023-02-11T15:44:30.425Z,9.18
2023-02-11T15:46:57.395Z,8.30
2023-02-11T15:49:24.829Z,9.07
2023-02-11T15:51:53.900Z,8.50
2023-02-11T15:54:29.079Z,8.93
2023-02-11T15:57:04.198Z,8.43
2023-02-11T15:59:37.372Z,11.20
2023-02-11T16:02:27.462Z,11.30
2023-02-11T16:04:56.276Z,11.27
2023-02-11T16:07:42.650Z,8.40
2023-02-11T16:10:43.267Z,11.18
2023-02-11T16:13:09.795Z,12.20
2023-02-11T16:15:46.750Z,9.48
2023-02-11T16:18:37.925Z,9.93
2023-02-11T16:21:07.555Z,10.30
2023-02-11T16:23:40.448Z,9.13
2023-02-11T16:26:28.679Z,10.63
2023-02-11T16:29:06.877Z,8.32
2023-02-11T16:34:00.861Z,11.10
2023-02-11T16:36:27.346Z,8.80
2023-02-11T16:38:53.763Z,10.23
2023-02-11T16:41:20.186Z,10.27
2023-02-11T16:43:46.678Z,8.45
2023-02-11T16:46:16.418Z,9.07
2023-02-11T16:48:43.257Z,9.05
2023-02-11T16:51:11.974Z,9.90
2023-02-11T16:53:38.613Z,10.20
2023-02-11T16:56:06.299Z,11.98
2023-02-11T16:58:32.838Z,8.20
2023-02-11T17:00:59.507Z,8.45
2023-02-11T17:03:29.771Z,11.75
2023-02-11T17:05:56.326Z,8.73
2023-02-11T17:08:22.751Z,11.00
2023-02-11T17:10:52.604Z,11.23
2023-02-11T17:13:19.270Z,10.20
2023-02-11T17:15:45.797Z,9.55
2023-02-11T17:18:13.306Z,10.02
2023-02-11T17:20:40.367Z,8.35
2023-02-11T17:23:06.739Z,10.55
2023-02-11T17:25:33.067Z,10.73
2023-02-11T17:27:59.485Z,9.38
2023-02-11T17:30:25.861Z,12.60
2023-02-11T17:32:52.195Z,10.20
2023-02-11T17:35:18.585Z,12.07
2023-02-11T17:37:44.911Z,9.07
2023-02-11T17:40:12.221Z,9.07
2023-02-11T17:42:38.579Z,10.40
2023-02-11T17:45:05.321Z,9.60
2023-02-11T17:47:31.794Z,10.73
2023-02-11T17:49:58.207Z,9.82
2023-02-11T17:52:24.684Z,11.43
2023-02-11T17:54:51.003Z,11.73
2023-02-11T17:57:17.400Z,10.60
2023-02-11T17:59:43.999Z,9.63
2023-02-11T18:02:13.442Z,11.93
2023-02-11T18:04:39.827Z,10.45
2023-02-11T18:07:06.864Z,10.65
2023-02-11T18:09:40.527Z,12.82
2023-02-11T18:12:07.759Z,8.13
2023-02-11T18:14:34.268Z,10.20
2023-02-11T18:17:00.660Z,15.73
2023-02-11T18:19:27.100Z,9.98
2023-02-11T18:21:53.430Z,9.20
2023-02-11T18:24:19.740Z,11.15
2023-02-11T18:26:46.142Z,10.48
2023-02-11T18:29:12.504Z,10.15
2023-02-11T18:31:38.901Z,10.70
2023-02-11T18:34:06.747Z,10.55
2023-02-11T18:36:33.816Z,10.50
2023-02-11T18:39:00.133Z,11.23
2023-02-11T18:41:26.967Z,15.05
2023-02-11T18:43:53.420Z,13.50
2023-02-11T18:46:19.863Z,11.55
2023-02-11T18:48:46.233Z,14.27
2023-02-11T18:51:15.556Z,12.25
2023-02-11T18:53:42.747Z,13.57
2023-02-11T18:56:15.529Z,14.68
2023-02-11T18:58:41.948Z,15.57
2023-02-11T19:01:18.895Z,14.30
2023-02-11T19:03:45.523Z,13.95
2023-02-11T19:06:25.747Z,15.48
2023-02-11T19:08:53.272Z,14.43
2023-02-11T19:11:20.063Z,17.13
2023-02-11T19:13:46.837Z,18.45
2023-02-11T19:16:13.579Z,17.58
2023-02-11T19:18:40.001Z,16.30
2023-02-11T19:21:08.579Z,18.17
2023-02-11T19:23:36.720Z,21.08
2023-02-11T19:26:03.828Z,20.80
2023-02-11T19:28:31.669Z,18.10
2023-02-11T19:30:58.298Z,15.52
2023-02-11T19:33:24.662Z,18.50
2023-02-11T19:35:51.287Z,16.73
2023-02-11T19:38:17.752Z,17.75
2023-02-11T19:40:44.100Z,18.38
2023-02-11T19:43:10.435Z,19.88
2023-02-11T19:45:37.608Z,22.75
2023-02-11T19:48:04.157Z,16.65
2023-02-11T19:50:30.537Z,20.85
2023-02-11T19:52:56.863Z,19.92
2023-02-11T19:55:23.263Z,19.42
2023-02-11T19:57:49.601Z,20.55
2023-02-11T20:00:16.328Z,21.00
2023-02-11T20:02:42.748Z,21.45
2023-02-11T20:05:09.268Z,20.77
2023-02-11T20:07:35.662Z,20.70
2023-02-11T20:10:02.134Z,23.33
2023-02-11T20:12:28.594Z,21.00
2023-02-11T20:14:54.966Z,21.35
2023-02-11T20:17:21.293Z,18.52
2023-02-11T20:19:47.641Z,16.40
2023-02-11T20:22:14.001Z,18.08
2023-02-11T20:24:40.337Z,17.90
2023-02-11T20:27:06.705Z,20.17
2023-02-11T20:29:33.044Z,18.00
2023-02-11T20:31:59.511Z,19.17
2023-02-11T20:34:25.923Z,19.52
2023-02-11T20:36:52.480Z,19.90
2023-02-11T20:39:20.267Z,20.48
2023-02-11T20:41:46.620Z,18.55
2023-02-11T20:44:13.709Z,18.10
2023-02-11T20:46:43.110Z,21.13
2023-02-11T20:49:11.839Z,18.80
2023-02-11T20:51:38.374Z,20.60
2023-02-11T20:54:05.412Z,18.83
2023-02-11T20:56:35.368Z,19.17
2023-02-11T20:59:02.917Z,18.85
2023-02-11T21:01:32.359Z,18.98
2023-02-11T21:04:13.904Z,19.35
2023-02-11T21:06:43.339Z,19.55
2023-02-11T21:09:13.186Z,20.73
2023-02-11T21:11:40.167Z,19.60
2023-02-11T21:14:06.937Z,17.38
2023-02-11T21:16:33.729Z,17.42
2023-02-11T21:19:00.101Z,19.52
2023-02-11T21:21:26.568Z,16.25
2023-02-11T21:23:53.152Z,21.73
2023-02-11T21:26:19.595Z,22.08
2023-02-11T21:28:46.063Z,19.40
2023-02-11T21:31:28.291Z,18.25
2023-02-11T21:33:55.643Z,20.10
2023-02-11T21:36:23.396Z,18.10
2023-02-11T21:38:49.778Z,22.27
2023-02-11T21:41:16.992Z,20.65
2023-02-11T21:43:43.492Z,22.88
2023-02-11T21:46:12.688Z,19.20
2023-02-11T21:48:39.270Z,20.85
2023-02-11T21:51:07.838Z,23.30
2023-02-11T21:53:34.985Z,20.67
2023-02-11T21:56:03.669Z,22.38
2023-02-11T21:58:30.140Z,22.98
2023-02-11T22:00:56.605Z,21.80
2023-02-11T22:03:23.154Z,21.65
2023-02-11T22:05:49.587Z,25.30
2023-02-11T22:08:18.002Z,21.55
2023-02-11T22:10:45.625Z,21.45
2023-02-11T22:13:12.088Z,23.42
2023-02-11T22:15:39.167Z,25.70
2023-02-11T22:18:05.611Z,24.58
2023-02-11T22:20:32.024Z,24.83
2023-02-11T22:22:58.579Z,23.55
2023-02-11T22:25:25.152Z,25.20
2023-02-11T22:27:52.070Z,24.67
2023-02-11T22:30:18.588Z,24.40
2023-02-11T22:32:45.130Z,23.65
2023-02-11T22:35:11.550Z,26.35
2023-02-11T22:37:37.983Z,23.20
2023-02-11T22:40:04.740Z,23.45
2023-02-11T22:42:31.246Z,24.35
2023-02-11T22:44:57.654Z,23.08
2023-02-11T22:47:24.129Z,26.63
2023-02-11T22:49:50.575Z,25.23
2023-02-11T22:52:16.965Z,24.80
2023-02-11T22:54:43.402Z,24.38
2023-02-11T22:57:09.836Z,22.60
2023-02-11T22:59:36.282Z,24.50
2023-02-11T23:02:02.868Z,22.23
2023-02-11T23:04:29.321Z,24.67
2023-02-11T23:06:55.661Z,25.98
2023-02-11T23:09:22.141Z,21.60
2023-02-11T23:11:48.617Z,25.38
2023-02-11T23:14:15.040Z,23.60
2023-02-11T23:16:41.501Z,23.67
2023-02-11T23:19:10.179Z,21.33
2023-02-11T23:21:38.463Z,23.58
2023-02-11T23:24:08.548Z,21.85
2023-02-11T23:26:37.092Z,21.60
2023-02-11T23:29:03.730Z,22.27
2023-02-11T23:31:33.603Z,21.55
2023-02-11T23:34:01.161Z,23.20
2023-02-11T23:36:27.675Z,22.55
2023-02-11T23:38:54.109Z,26.23
2023-02-11T23:41:21.705Z,20.63
2023-02-11T23:43:54.762Z,22.38
2023-02-11T23:46:22.305Z,22.00
2023-02-11T23:48:49.864Z,23.88
2023-02-11T23:51:16.551Z,23.15
2023-02-11T23:53:43.336Z,23.38
2023-02-11T23:56:13.416Z,22.50
2023-02-11T23:58:39.793Z,23.00
